Time;durP1;ratioP1;P1;durP2;ratioP2;P2;SDS_P1;SDS_P2;PMS_P1;PMS_P2;Temp;Humidity;BMP_temperature;BMP_pressure;BME280_temperature;BME280_humidity;BME280_pressure;Samples;Min_cycle;Max_cycle;Signal;HPM_P1;HPM_P2
2022/07/02 00:01:39;;;;;;;22.33;7.73;;;23.50;87.00;;;24.13;57.56;95105.69;5065114;28;20658;-54
2022/07/02 00:04:06;;;;;;;8.67;7.87;;;23.50;87.30;;;24.15;56.71;95111.66;5059220;28;20585;-55
2022/07/02 00:06:33;;;;;;;15.80;8.90;;;23.50;87.20;;;24.14;57.53;95107.34;5061034;28;20475;-56
2022/07/02 00:09:01;;;;;;;12.13;8.43;;;23.50;87.70;;;24.13;57.06;95106.50;5065682;28;20526;-54
2022/07/02 00:11:28;;;;;;;8.30;6.87;;;23.50;88.50;;;24.13;57.93;95106.50;5065705;28;20986;-55
2022/07/02 00:13:57;;;;;;;9.30;8.50;;;23.50;88.80;;;24.13;57.65;95105.69;5057007;28;20474;-54
2022/07/02 00:16:24;;;;;;;12.63;8.17;;;23.50;89.20;;;24.15;57.96;95108.97;5062395;28;20474;-54
2022/07/02 00:18:51;;;;;;;8.87;8.00;;;23.50;89.30;;;24.13;58.14;95111.06;5056742;28;21040;-54
2022/07/02 00:21:19;;;;;;;12.27;8.50;;;23.50;89.90;;;24.12;58.41;95104.03;5061134;28;20473;-55
2022/07/02 00:23:46;;;;;;;8.80;7.90;;;23.50;89.90;;;24.11;57.92;95115.84;5058803;28;20493;-56
2022/07/02 00:26:18;;;;;;;9.83;8.40;;;23.50;90.00;;;24.08;58.69;95110.91;5058870;28;20871;-55
2022/07/02 00:28:47;;;;;;;9.90;8.87;;;23.50;90.30;;;24.05;58.70;95101.41;5059762;28;20453;-56
2022/07/02 00:31:16;;;;;;;13.80;9.27;;;23.40;90.50;;;24.03;58.95;95105.34;5070207;28;20470;-53
2022/07/02 00:33:43;;;;;;;13.60;8.97;;;23.40;90.80;;;23.99;58.45;95100.41;5060162;28;20454;-54
2022/07/02 00:36:21;;;;;;;11.50;10.40;;;23.40;90.80;;;23.98;58.76;95100.63;5065372;28;20534;-56
2022/07/02 00:38:49;;;;;;;9.13;8.23;;;23.40;91.10;;;23.95;58.63;95107.28;5058935;28;20453;-52
2022/07/02 00:41:17;;;;;;;12.03;9.20;;;23.30;91.20;;;23.93;59.45;95114.72;5059928;28;20554;-55
2022/07/02 00:43:44;;;;;;;10.63;8.80;;;23.30;91.40;;;23.89;59.48;95116.19;5062433;28;21025;-56
2022/07/02 00:46:12;;;;;;;13.43;9.27;;;23.30;91.60;;;23.88;58.97;95113.72;5061791;28;20474;-54
2022/07/02 00:48:40;;;;;;;12.70;8.73;;;23.30;92.10;;;23.84;58.94;95121.38;5062752;28;20450;-54
2022/07/02 00:51:08;;;;;;;12.40;9.23;;;23.20;91.70;;;23.80;59.10;95125.53;5067434;28;20573;-55
2022/07/02 00:53:35;;;;;;;11.80;9.10;;;23.20;91.90;;;23.77;59.09;95121.41;5064846;28;20547;-54
2022/07/02 00:56:02;;;;;;;13.60;8.80;;;23.20;92.10;;;23.75;59.20;95119.97;5064540;28;20576;-54
2022/07/02 00:58:30;;;;;;;10.23;9.13;;;23.20;92.20;;;23.73;60.11;95116.69;5067130;28;20462;-55
2022/07/02 01:00:57;;;;;;;10.63;9.37;;;23.10;92.30;;;23.69;60.06;95118.16;5069053;28;20474;-55
2022/07/02 01:03:25;;;;;;;13.00;10.10;;;23.10;92.60;;;23.64;60.18;95110.75;5064777;28;20499;-55
2022/07/02 01:05:53;;;;;;;12.00;9.93;;;23.10;92.50;;;23.59;59.63;95111.41;5065660;28;20474;-57
2022/07/02 01:11:22;;;;;;;11.37;10.17;;;23.00;92.70;;;23.48;60.53;95114.75;5015189;28;20522;-56
2022/07/02 01:13:49;;;;;;;11.53;9.27;;;22.90;92.80;;;23.45;59.70;95101.75;5015527;28;20904;-55
2022/07/02 01:16:16;;;;;;;12.23;9.53;;;22.90;92.90;;;23.42;60.55;95110.22;5043653;28;20477;-55
2022/07/02 01:18:44;;;;;;;11.67;9.43;;;22.90;93.00;;;23.37;60.54;95102.00;5058886;28;20458;-54
2022/07/02 01:21:12;;;;;;;11.93;8.90;;;22.80;93.10;;;23.34;60.53;95097.88;5065384;28;20489;-53
2022/07/02 01:23:41;;;;;;;14.03;8.73;;;22.80;93.40;;;23.31;60.08;95097.50;5069476;28;20923;-57
2022/07/02 01:26:09;;;;;;;10.93;9.80;;;22.70;93.40;;;23.28;60.38;95101.41;5063649;28;20475;-54
2022/07/02 01:28:36;;;;;;;16.30;9.57;;;22.70;93.40;;;23.23;60.36;95096.69;5063052;28;20458;-56
2022/07/02 01:31:03;;;;;;;13.93;9.00;;;22.70;93.60;;;23.22;61.13;95094.22;5065747;28;20483;-55
2022/07/02 01:33:31;;;;;;;13.93;9.60;;;22.70;93.70;;;23.18;61.28;95104.56;5063218;28;20495;-53
2022/07/02 01:35:59;;;;;;;8.57;7.73;;;22.60;94.00;;;23.15;61.17;95094.25;5064581;28;20540;-54
2022/07/02 01:38:26;;;;;;;15.30;9.30;;;22.60;93.80;;;23.14;60.68;95094.47;5061102;28;20827;-54
2022/07/02 01:41:38;;;;;;;10.67;9.30;;;22.60;93.90;;;23.13;61.47;95100.84;5066434;28;20999;-54
2022/07/02 01:43:43;;;;;;;10.67;9.60;;;22.50;94.10;;;23.09;61.09;95100.47;5061640;28;20478;-54
2022/07/02 01:46:10;;;;;;;20.87;10.10;;;22.50;94.10;;;23.04;60.76;95090.34;5065706;28;20991;-55
2022/07/02 01:48:37;;;;;;;15.50;9.90;;;22.50;94.00;;;23.06;60.69;95090.94;5063774;28;20802;-54
2022/07/02 01:51:05;;;;;;;10.53;9.23;;;22.50;94.10;;;23.05;60.54;95094.69;5062260;28;20542;-55
2022/07/02 01:53:32;;;;;;;11.47;9.60;;;22.50;94.30;;;23.04;61.24;95097.56;5069603;28;20455;-54
2022/07/02 01:56:01;;;;;;;12.57;9.80;;;22.50;94.40;;;23.03;60.62;95095.91;5070772;28;20489;-54
2022/07/02 01:58:28;;;;;;;11.33;8.70;;;22.50;94.30;;;23.02;61.30;95099.63;5063936;28;20462;-54
2022/07/02 02:00:55;;;;;;;11.60;9.13;;;22.40;94.30;;;23.00;61.19;95093.66;5062484;28;20479;-54
2022/07/02 02:03:23;;;;;;;12.13;8.50;;;22.40;94.30;;;22.98;60.86;95093.88;5066180;28;20903;-54
2022/07/02 02:05:53;;;;;;;12.17;9.00;;;22.40;94.30;;;22.98;60.96;95106.47;5061442;28;20491;-53
2022/07/02 02:08:20;;;;;;;14.47;9.30;;;22.40;94.40;;;22.96;60.97;95095.09;5062000;28;20486;-55
2022/07/02 02:10:47;;;;;;;19.53;8.93;;;22.40;94.50;;;22.95;61.61;95096.97;5067365;28;20483;-55
2022/07/02 02:13:16;;;;;;;10.50;9.40;;;22.40;94.60;;;22.92;61.31;95094.72;5064975;28;20469;-53
2022/07/02 02:15:43;;;;;;;19.80;10.60;;;22.30;94.50;;;22.89;60.88;95090.59;5061077;28;20858;-55
2022/07/02 02:18:10;;;;;;;11.93;9.00;;;22.30;94.80;;;22.88;61.23;95091.66;5062193;28;20990;-54
2022/07/02 02:20:38;;;;;;;10.13;8.10;;;22.30;94.90;;;22.87;61.16;95102.59;5066424;28;20492;-55
2022/07/02 02:23:06;;;;;;;11.37;9.13;;;22.30;95.00;;;22.85;61.20;95088.53;5068892;28;20470;-54
2022/07/02 02:25:33;;;;;;;8.47;7.77;;;22.30;95.00;;;22.85;61.13;95104.63;5060231;28;20494;-55
2022/07/02 02:28:00;;;;;;;15.17;9.10;;;22.30;94.90;;;22.85;61.57;95104.63;5064087;28;20637;-54
2022/07/02 02:30:29;;;;;;;9.10;8.20;;;22.30;95.00;;;22.82;61.27;95105.91;5061193;28;20490;-56
2022/07/02 02:32:57;;;;;;;10.10;8.10;;;22.30;94.70;;;22.83;60.70;95109.41;5063686;28;20455;-55
2022/07/02 02:35:24;;;;;;;9.70;8.70;;;22.20;94.60;;;22.81;61.06;95111.47;5065087;28;20576;-55
2022/07/02 02:37:51;;;;;;;11.60;8.07;;;22.20;94.70;;;22.79;61.05;95117.03;5062539;28;20968;-53
2022/07/02 02:40:19;;;;;;;8.90;7.57;;;22.20;94.60;;;22.77;60.61;95124.47;5065429;28;20498;-53
2022/07/02 02:42:46;;;;;;;9.37;8.43;;;22.20;94.50;;;22.76;60.68;95122.81;5060553;28;20455;-54
2022/07/02 02:45:13;;;;;;;8.57;7.77;;;22.20;94.60;;;22.73;60.95;95115.19;5061434;28;21023;-52
2022/07/02 02:47:42;;;;;;;11.23;8.37;;;22.20;94.60;;;22.73;60.55;95124.06;5057544;28;20466;-54
2022/07/02 02:50:10;;;;;;;9.30;8.40;;;22.20;94.40;;;22.71;60.60;95130.66;5056382;28;21018;-55
2022/07/02 02:52:37;;;;;;;9.57;8.67;;;22.10;94.30;;;22.66;60.38;95123.25;5066382;28;20958;-55
2022/07/02 02:55:06;;;;;;;12.00;8.33;;;22.10;94.10;;;22.61;60.50;95135.63;5064075;28;20874;-55
2022/07/02 02:57:33;;;;;;;10.43;7.53;;;22.10;94.00;;;22.53;60.52;95128.63;5067382;28;20455;-53
2022/07/02 03:00:00;;;;;;;9.50;8.60;;;22.00;93.90;;;22.48;60.50;95131.94;5060245;28;20481;-54
2022/07/02 03:02:27;;;;;;;11.33;7.87;;;22.00;94.00;;;22.46;60.43;95142.03;5059743;28;20959;-55
2022/07/02 03:04:56;;;;;;;12.53;8.23;;;21.90;94.10;;;22.44;60.81;95154.00;5069446;28;20497;-55
2022/07/02 03:07:23;;;;;;;10.00;8.50;;;21.90;94.30;;;22.44;60.80;95154.81;5063481;28;20460;-54
2022/07/02 03:09:51;;;;;;;9.23;8.30;;;21.90;94.40;;;22.45;60.79;95153.78;5064232;28;20451;-56
2022/07/02 03:12:18;;;;;;;9.87;8.77;;;21.90;94.30;;;22.44;60.87;95156.69;5063235;28;20467;-54
2022/07/02 03:14:45;;;;;;;12.37;9.33;;;21.90;94.20;;;22.43;60.45;95149.66;5059180;28;20995;-54
2022/07/02 03:17:13;;;;;;;9.47;8.63;;;21.90;94.20;;;22.41;60.43;95147.19;5058819;28;20463;-55
2022/07/02 03:19:40;;;;;;;16.43;9.93;;;21.90;94.30;;;22.39;60.73;95149.25;5060050;28;20466;-54
2022/07/02 03:22:08;;;;;;;9.80;8.90;;;21.90;94.40;;;22.39;60.74;95157.31;5066228;28;21175;-55
2022/07/02 03:24:36;;;;;;;13.63;8.77;;;21.90;94.50;;;22.41;60.94;95151.75;5060919;28;20503;-57
2022/07/02 03:27:04;;;;;;;12.83;8.50;;;21.90;94.80;;;22.39;60.86;95154.63;5068335;28;20501;-55
2022/07/02 03:29:31;;;;;;;12.97;7.83;;;21.90;94.80;;;22.38;61.21;95163.69;5064021;28;20466;-54
2022/07/02 03:31:58;;;;;;;11.83;8.67;;;21.90;94.90;;;22.37;61.33;95165.56;5066156;28;21071;-55
2022/07/02 03:34:25;;;;;;;11.67;8.80;;;21.90;94.80;;;22.38;61.49;95169.03;5069399;28;20451;-53
2022/07/02 03:36:53;;;;;;;11.63;8.80;;;21.80;95.00;;;22.41;61.57;95167.81;5054298;28;20920;-54
2022/07/02 03:39:21;;;;;;;10.93;9.33;;;21.90;95.50;;;22.43;61.41;95166.56;5067995;28;20885;-55
2022/07/02 03:41:48;;;;;;;10.13;8.53;;;21.90;95.20;;;22.45;61.53;95169.03;5061171;28;20484;-54
2022/07/02 03:44:16;;;;;;;12.90;9.67;;;21.90;95.30;;;22.45;61.65;95161.84;5069252;28;20486;-56
2022/07/02 03:46:43;;;;;;;9.93;8.93;;;21.90;95.30;;;22.48;61.67;95174.84;5062542;28;21034;-55
2022/07/02 03:49:10;;;;;;;13.77;8.80;;;21.90;95.20;;;22.50;61.58;95172.75;5061922;28;20997;-55
2022/07/02 03:51:38;;;;;;;13.20;9.30;;;21.90;95.40;;;22.52;61.37;95176.03;5061261;28;21194;-56
2022/07/02 03:54:05;;;;;;;9.30;8.50;;;21.90;95.30;;;22.55;61.46;95180.19;5063641;28;20456;-54
2022/07/02 03:56:34;;;;;;;24.37;9.83;;;21.90;95.30;;;22.58;62.23;95176.28;5063915;28;20479;-54
2022/07/02 03:59:01;;;;;;;20.13;10.17;;;22.00;95.50;;;22.59;61.84;95170.69;5060220;28;20946;-54
2022/07/02 04:01:28;;;;;;;16.57;10.00;;;22.00;95.50;;;22.62;61.40;95180.16;5063404;28;20478;-54
2022/07/02 04:03:56;;;;;;;14.30;8.77;;;22.10;95.70;;;22.66;61.95;95182.22;5062621;28;20840;-54
2022/07/02 04:06:23;;;;;;;11.80;9.43;;;22.10;95.80;;;22.70;62.38;95183.47;5062968;28;20498;-53
2022/07/02 04:08:50;;;;;;;16.30;10.93;;;22.20;96.00;;;22.73;61.79;95176.88;5062809;28;20455;-55
2022/07/02 04:11:18;;;;;;;16.53;10.50;;;22.20;95.70;;;22.73;61.69;95182.25;5062411;28;20531;-54
2022/07/02 04:13:46;;;;;;;16.53;11.03;;;22.20;95.80;;;22.75;61.32;95180.16;5058426;28;20984;-54
2022/07/02 04:16:14;;;;;;;11.80;10.53;;;22.20;95.50;;;22.73;61.40;95183.06;5063050;28;20478;-57
2022/07/02 04:18:41;;;;;;;11.87;10.50;;;22.20;95.40;;;22.72;61.79;95186.75;5061450;28;20464;-54
2022/07/02 04:21:08;;;;;;;20.90;10.33;;;22.20;95.40;;;22.73;61.96;95192.97;5060872;28;20474;-55
2022/07/02 04:23:35;;;;;;;28.27;10.20;;;22.20;95.60;;;22.77;61.65;95191.50;5063152;28;20843;-54
2022/07/02 04:26:04;;;;;;;16.20;10.80;;;22.20;95.70;;;22.83;62.11;95188.00;5070258;28;20505;-56
2022/07/02 04:28:32;;;;;;;11.63;10.20;;;22.30;95.90;;;22.91;62.02;95193.16;5065360;28;20952;-54
2022/07/02 04:31:00;;;;;;;12.13;10.07;;;22.30;96.10;;;22.99;62.08;95194.78;5065717;28;20863;-55
2022/07/02 04:33:28;;;;;;;13.37;11.23;;;22.40;96.10;;;23.06;62.39;95187.53;5068982;28;20462;-54
2022/07/02 04:35:55;;;;;;;20.13;12.20;;;22.50;96.00;;;23.13;61.97;95184.88;5063135;28;20482;-55
2022/07/02 04:38:22;;;;;;;20.07;10.70;;;22.50;95.80;;;23.21;61.34;95192.69;5060372;28;20546;-54
2022/07/02 04:40:49;;;;;;;21.83;10.87;;;22.60;95.70;;;23.27;61.54;95194.53;5067412;28;21070;-54
2022/07/02 04:43:17;;;;;;;13.87;10.43;;;22.70;95.60;;;23.35;61.41;95198.03;5073137;28;20461;-54
2022/07/02 04:45:44;;;;;;;16.87;11.40;;;22.70;95.80;;;23.40;61.22;95198.22;5066809;28;20494;-56
2022/07/02 04:48:13;;;;;;;17.77;11.03;;;22.80;95.40;;;23.45;60.78;95187.66;5059562;28;20455;-54
2022/07/02 04:50:40;;;;;;;13.67;11.47;;;22.90;95.30;;;23.51;60.58;95189.50;5065591;28;20471;-56
2022/07/02 04:53:07;;;;;;;13.03;11.30;;;22.90;95.30;;;23.57;60.98;95185.16;5063423;28;20459;-56
2022/07/02 04:55:35;;;;;;;20.30;11.30;;;23.00;95.20;;;23.63;60.24;95197.72;5067857;28;21098;-54
2022/07/02 04:58:02;;;;;;;12.53;10.50;;;23.00;95.00;;;23.70;60.11;95193.16;5064214;28;20466;-54
2022/07/02 05:00:29;;;;;;;15.90;11.10;;;23.10;95.00;;;23.75;60.14;95201.38;5062963;28;20485;-55
2022/07/02 05:02:57;;;;;;;14.37;10.50;;;23.20;94.90;;;23.82;60.14;95201.34;5069776;28;20497;-55
2022/07/02 05:05:26;;;;;;;12.97;11.10;;;23.20;95.10;;;23.90;59.81;95200.28;5067923;28;20504;-53
2022/07/02 05:07:54;;;;;;;12.80;11.43;;;23.30;94.70;;;23.95;60.17;95204.00;5064084;28;20461;-56
2022/07/02 05:10:21;;;;;;;13.20;11.10;;;23.30;94.60;;;23.99;59.96;95197.13;5063655;28;20473;-55
2022/07/02 05:12:48;;;;;;;15.80;9.80;;;23.40;94.50;;;24.08;60.21;95191.53;5061164;28;20462;-55
2022/07/02 05:15:16;;;;;;;16.20;12.30;;;23.50;94.60;;;24.20;60.18;95197.84;5065153;28;20467;-56
2022/07/02 05:17:43;;;;;;;20.70;11.07;;;23.60;94.70;;;24.34;59.32;95196.72;5066169;28;20450;-54
2022/07/02 05:20:11;;;;;;;15.20;11.07;;;23.70;94.50;;;24.51;59.78;95196.19;5059638;28;21029;-54
2022/07/02 05:22:40;;;;;;;19.00;11.87;;;23.80;94.40;;;24.67;59.29;95203.72;5065369;28;20443;-57
2022/07/02 05:25:08;;;;;;;25.77;11.60;;;24.00;94.20;;;24.83;58.32;95204.22;5059796;28;20489;-55
2022/07/02 05:27:35;;;;;;;12.93;11.73;;;24.10;94.00;;;25.03;57.96;95204.03;5064157;28;20446;-55
2022/07/02 05:30:03;;;;;;;21.03;12.53;;;24.30;93.70;;;25.23;58.04;95209.22;5059648;28;20478;-55
2022/07/02 05:32:30;;;;;;;17.73;10.57;;;24.50;93.60;;;25.39;57.48;95211.34;5058912;28;20459;-54
2022/07/02 05:34:57;;;;;;;19.63;11.57;;;24.60;93.20;;;25.55;57.40;95220.69;5060102;28;21046;-54
2022/07/02 05:37:25;;;;;;;17.53;11.10;;;24.80;92.90;;;25.71;57.09;95208.47;5064451;28;20494;-55
2022/07/02 05:39:53;;;;;;;28.53;12.17;;;24.90;92.70;;;25.88;56.90;95210.56;5059344;28;20458;-56
2022/07/02 05:42:20;;;;;;;18.57;11.27;;;25.10;92.50;;;26.06;56.14;95210.56;5062045;28;20959;-55
2022/07/02 05:44:48;;;;;;;18.67;12.33;;;25.30;92.20;;;26.26;55.49;95214.84;5059258;28;20474;-55
2022/07/02 05:47:15;;;;;;;18.60;12.87;;;25.50;91.80;;;26.43;55.09;95215.84;5062215;28;20465;-57
2022/07/02 05:49:42;;;;;;;21.30;13.03;;;25.70;91.30;;;26.59;54.93;95218.91;5061764;28;20447;-56
2022/07/02 05:52:10;;;;;;;16.10;12.77;;;25.80;90.90;;;26.74;54.50;95222.03;5063221;28;20454;-53
2022/07/02 05:54:37;;;;;;;16.80;12.07;;;26.00;91.00;;;26.92;54.16;95228.38;5060526;28;20459;-53
2022/07/02 05:57:06;;;;;;;17.27;13.13;;;26.10;90.60;;;27.07;53.98;95214.41;5061642;28;20498;-55
2022/07/02 05:59:34;;;;;;;19.80;12.40;;;26.30;90.30;;;27.24;53.61;95214.53;5055502;28;20456;-55
2022/07/02 06:02:01;;;;;;;21.27;11.60;;;26.50;90.10;;;27.42;53.28;95217.13;5064647;28;20470;-53
2022/07/02 06:04:28;;;;;;;19.00;11.90;;;26.60;89.30;;;27.58;52.90;95220.97;5060467;28;20451;-56
2022/07/02 06:09:40;;;;;;;19.40;12.07;;;26.90;88.10;;;27.84;52.35;95225.03;5067079;28;20486;-56
2022/07/02 06:12:10;;;;;;;31.60;12.10;;;27.10;86.80;;;27.99;52.02;95223.69;5066328;28;20537;-55
2022/07/02 06:14:37;;;;;;;21.73;11.20;;;27.20;86.80;;;28.20;52.05;95219.50;5057106;28;20457;-53
2022/07/02 06:17:05;;;;;;;19.03;10.87;;;27.30;86.60;;;28.43;51.56;95227.50;5066241;28;20474;-55
2022/07/02 06:19:33;;;;;;;15.60;11.27;;;27.60;86.00;;;28.65;51.06;95221.41;5060271;28;20531;-53
2022/07/02 06:22:00;;;;;;;16.10;11.83;;;27.80;85.10;;;28.87;50.72;95228.81;5071508;28;20505;-54
2022/07/02 06:24:27;;;;;;;20.13;11.17;;;28.00;84.50;;;29.06;50.58;95230.19;5065827;28;20476;-55
2022/07/02 06:26:54;;;;;;;18.07;11.30;;;28.20;84.30;;;29.26;50.04;95235.13;5053545;28;20487;-55
2022/07/02 06:29:23;;;;;;;22.20;11.80;;;28.40;82.60;;;29.44;50.08;95236.72;5062798;28;20840;-55
2022/07/02 06:31:51;;;;;;;15.43;11.30;;;28.50;81.40;;;29.62;49.07;95229.38;5058306;28;20897;-55
2022/07/02 06:34:19;;;;;;;41.17;12.23;;;28.70;80.90;;;29.78;48.73;95231.22;5060494;28;20211;-53
2022/07/02 06:36:47;;;;;;;22.90;11.40;;;28.90;79.50;;;29.93;48.49;95227.91;5061264;28;20225;-56
2022/07/02 06:39:14;;;;;;;15.60;10.83;;;29.10;78.80;;;30.09;48.78;95239.75;5060828;28;20215;-54
2022/07/02 06:44:28;;;;;;;15.53;12.00;;;29.30;77.20;;;30.43;47.78;95231.47;5060144;28;20196;-55
2022/07/02 06:46:55;;;;;;;26.43;11.93;;;29.50;76.70;;;30.55;47.37;95226.69;5059801;28;20236;-56
2022/07/02 06:49:22;;;;;;;16.63;11.80;;;29.70;75.90;;;30.65;47.31;95223.25;5059444;28;20236;-55
2022/07/02 06:51:50;;;;;;;30.33;12.17;;;29.80;75.00;;;30.72;47.42;95223.03;5060521;28;20239;-56
2022/07/02 06:54:17;;;;;;;14.90;11.47;;;29.90;74.30;;;30.84;46.51;95228.28;5059979;28;20200;-58
2022/07/02 06:56:44;;;;;;;17.13;10.10;;;30.00;74.00;;;30.96;47.17;95233.56;5062006;28;20215;-60
2022/07/02 06:59:12;;;;;;;20.83;11.73;;;30.10;73.70;;;31.15;46.75;95236.72;5057631;28;20211;-55
2022/07/02 07:01:40;;;;;;;20.87;10.70;;;30.20;72.70;;;31.32;46.22;95237.38;5061230;28;20220;-56
2022/07/02 07:04:08;;;;;;;14.60;9.70;;;30.40;71.90;;;31.49;45.54;95233.66;5059688;28;20232;-54
2022/07/02 07:06:35;;;;;;;12.33;9.83;;;30.60;71.40;;;31.67;45.86;95238.69;5060932;28;20236;-54
2022/07/02 07:09:03;;;;;;;23.93;11.07;;;30.70;70.60;;;31.83;45.16;95238.78;5062052;28;20575;-57
2022/07/02 07:11:30;;;;;;;14.73;11.40;;;30.90;69.80;;;31.97;45.05;95239.91;5061900;28;20278;-56
2022/07/02 07:13:57;;;;;;;16.83;10.37;;;31.10;69.20;;;32.13;44.71;95241.66;5057667;28;20200;-53
2022/07/02 07:16:25;;;;;;;18.00;10.67;;;31.20;68.40;;;32.28;44.56;95240.03;5057824;28;20209;-55
2022/07/02 07:18:54;;;;;;;13.63;10.83;;;31.40;67.60;;;32.40;44.32;95239.81;5059396;28;20649;-54
2022/07/02 07:21:22;;;;;;;15.13;9.63;;;31.50;67.20;;;32.50;44.06;95232.47;5061200;28;20546;-53
2022/07/02 07:23:49;;;;;;;19.38;9.57;;;31.60;66.60;;;32.63;43.87;95235.78;5065143;28;20364;-53
2022/07/02 07:26:16;;;;;;;13.40;9.73;;;31.70;66.20;;;32.75;43.95;95241.81;5063047;28;20715;-55
2022/07/02 07:28:44;;;;;;;13.07;11.40;;;31.80;65.30;;;32.85;43.50;95244.53;5059876;28;20693;-55
2022/07/02 07:31:11;;;;;;;12.13;9.60;;;31.90;64.90;;;32.98;43.12;95231.44;5057430;28;20228;-54
2022/07/02 07:33:39;;;;;;;21.23;8.52;;;32.10;64.00;;;33.09;42.79;95240.44;5062162;28;20200;-54
2022/07/02 07:36:08;;;;;;;11.18;9.30;;;32.20;63.80;;;33.24;42.52;95245.91;5058326;28;20232;-56
2022/07/02 07:38:35;;;;;;;14.18;9.90;;;32.30;63.20;;;33.42;42.01;95249.97;5063620;28;20200;-54
2022/07/02 07:41:02;;;;;;;9.85;8.85;;;32.50;62.10;;;33.59;41.77;95246.94;5066790;28;20254;-54
2022/07/02 07:43:30;;;;;;;11.20;9.32;;;32.60;61.40;;;33.77;41.71;95245.53;5060130;28;20212;-54
2022/07/02 07:45:57;;;;;;;10.23;9.23;;;32.80;60.70;;;33.93;41.68;95255.31;5064431;28;20680;-54
2022/07/02 07:48:24;;;;;;;14.02;9.25;;;33.00;60.20;;;34.10;40.94;95238.59;5060083;28;20200;-55
2022/07/02 07:50:52;;;;;;;69.60;11.68;;;33.20;59.40;;;34.27;40.45;95238.28;5064540;28;20741;-54
2022/07/02 07:53:20;;;;;;;9.48;8.45;;;33.30;58.90;;;34.39;40.31;95242.56;5063607;28;20196;-54
2022/07/02 07:55:48;;;;;;;13.35;10.27;;;33.50;58.50;;;34.47;40.56;95241.97;5067152;28;20256;-54
2022/07/02 07:58:15;;;;;;;12.65;9.32;;;33.50;58.30;;;34.58;40.23;95238.09;5067249;28;20200;-54
2022/07/02 08:00:43;;;;;;;16.25;9.18;;;33.70;58.00;;;34.73;40.14;95239.88;5066697;28;20220;-55
2022/07/02 08:03:10;;;;;;;15.60;8.65;;;33.80;57.60;;;34.88;39.54;95243.66;5061475;28;20196;-54
2022/07/02 08:05:38;;;;;;;14.18;8.70;;;33.90;56.60;;;34.97;39.18;95233.75;5064919;28;20616;-54
2022/07/02 08:08:07;;;;;;;10.73;8.90;;;34.10;56.30;;;35.05;39.45;95240.53;5062463;28;20197;-54
2022/07/02 08:10:35;;;;;;;12.27;9.48;;;34.10;56.30;;;35.21;38.87;95242.00;5062341;28;20277;-56
2022/07/02 08:13:03;;;;;;;22.15;10.18;;;34.20;56.20;;;35.40;39.17;95247.63;5063317;28;20287;-55
2022/07/02 08:15:30;;;;;;;13.73;9.93;;;34.50;55.90;;;35.56;39.06;95248.28;5062985;28;20215;-55
2022/07/02 08:17:57;;;;;;;20.08;10.85;;;34.60;55.50;;;35.73;38.10;95245.88;5061951;28;20267;-55
2022/07/02 08:20:25;;;;;;;13.40;9.23;;;34.70;54.80;;;35.89;37.78;95237.53;5066655;28;20600;-55
2022/07/02 08:22:52;;;;;;;14.45;10.35;;;34.90;54.50;;;36.07;37.38;95247.72;5058805;28;20208;-56
2022/07/02 08:25:20;;;;;;;11.05;8.55;;;35.10;54.00;;;36.25;38.02;95245.28;5064333;28;20571;-56
2022/07/02 08:27:48;;;;;;;9.35;8.27;;;35.30;54.10;;;36.43;37.55;95251.94;5061164;28;20225;-55
2022/07/02 08:30:16;;;;;;;9.00;8.20;;;35.50;53.60;;;36.58;37.43;95251.72;5065610;28;20216;-56
2022/07/02 08:32:43;;;;;;;10.73;9.52;;;35.60;52.80;;;36.69;37.03;95254.31;5060159;28;20204;-56
2022/07/02 08:35:10;;;;;;;8.60;7.50;;;35.80;52.20;;;36.73;36.34;95256.19;5064884;28;20235;-58
2022/07/02 08:37:38;;;;;;;14.80;9.15;;;35.80;51.40;;;36.85;35.60;95246.72;5060877;28;20266;-57
2022/07/02 08:40:07;;;;;;;17.05;9.45;;;35.90;50.70;;;37.02;35.42;95246.97;5063825;28;20756;-56
2022/07/02 08:42:35;;;;;;;10.38;8.90;;;36.10;50.90;;;37.21;35.26;95248.84;5061337;28;20205;-55
2022/07/02 08:45:06;;;;;;;9.18;8.32;;;36.30;50.30;;;37.40;34.93;95257.06;5062278;28;20311;-55
2022/07/02 08:47:33;;;;;;;14.63;8.45;;;36.40;49.80;;;37.58;35.18;95253.44;5058293;28;20239;-55
2022/07/02 08:50:00;;;;;;;11.00;8.63;;;36.60;49.60;;;37.77;34.79;95260.81;5063659;28;20243;-54
2022/07/02 08:52:29;;;;;;;10.65;8.27;;;36.80;49.10;;;37.87;34.42;95244.16;5057921;28;20204;-55
2022/07/02 08:54:56;;;;;;;11.98;8.30;;;37.00;48.60;;;37.96;33.77;95253.31;5062986;28;20200;-55
2022/07/02 08:57:24;;;;;;;10.73;7.75;;;37.10;47.90;;;38.00;34.25;95250.75;5060440;28;20214;-54
2022/07/02 08:59:51;;;;;;;10.00;7.85;;;37.10;48.10;;;38.08;33.90;95261.03;5061819;28;20208;-55
2022/07/02 09:02:20;;;;;;;12.65;7.90;;;37.20;47.70;;;38.17;33.24;95259.22;5060120;28;20197;-54
2022/07/02 09:04:48;;;;;;;15.48;7.78;;;37.30;46.80;;;38.13;33.17;95251.88;5059799;28;20205;-54
2022/07/02 09:07:17;;;;;;;10.77;8.13;;;37.30;46.70;;;38.18;33.33;95249.84;5063121;28;20239;-55
2022/07/02 09:09:45;;;;;;;12.43;7.38;;;37.30;46.80;;;38.17;32.76;95253.75;5060341;28;20636;-54
2022/07/02 09:12:13;;;;;;;11.63;8.13;;;37.40;46.50;;;38.07;33.20;95250.34;5061850;28;20684;-55
2022/07/02 09:14:41;;;;;;;9.25;8.07;;;37.20;46.30;;;37.91;33.14;95239.69;5059664;28;20209;-53
2022/07/02 09:17:08;;;;;;;9.95;7.50;;;37.10;46.20;;;37.93;33.05;95245.66;5063057;28;20314;-53
2022/07/02 09:19:37;;;;;;;14.18;7.68;;;37.10;46.30;;;37.99;33.08;95236.22;5059913;28;20197;-54
2022/07/02 09:22:05;;;;;;;12.45;7.93;;;37.10;46.30;;;38.10;33.04;95238.75;5062885;28;20228;-55
2022/07/02 09:24:34;;;;;;;6.97;6.35;;;37.20;46.20;;;38.19;32.87;95235.00;5060221;28;20669;-55
2022/07/02 09:27:02;;;;;;;14.07;7.95;;;37.30;45.90;;;38.31;32.94;95237.22;5065817;28;20263;-54
2022/07/02 09:29:30;;;;;;;7.38;6.78;;;37.40;46.00;;;38.45;32.83;95236.38;5060799;28;20206;-55
2022/07/02 09:31:57;;;;;;;11.27;8.55;;;37.60;45.80;;;38.55;32.63;95231.47;5061628;28;20605;-54
2022/07/02 09:34:26;;;;;;;11.38;7.88;;;37.60;45.60;;;38.59;32.60;95230.84;5059711;28;20219;-56
2022/07/02 09:36:55;;;;;;;9.52;7.38;;;37.70;45.40;;;38.58;32.36;95229.22;5062744;28;20246;-56
2022/07/02 09:39:29;;;;;;;8.73;6.75;;;37.70;45.40;;;38.63;32.08;95234.63;5061524;28;20216;-53
2022/07/02 09:41:57;;;;;;;10.10;7.18;;;37.80;44.90;;;38.73;32.20;95237.97;5062734;28;20258;-56
2022/07/02 09:44:25;;;;;;;11.13;7.03;;;37.80;45.40;;;38.85;32.25;95231.09;5058828;28;20204;-55
2022/07/02 09:46:52;;;;;;;13.52;7.75;;;37.90;44.40;;;38.88;31.59;95228.53;5055556;28;20255;-56
2022/07/02 09:49:20;;;;;;;9.95;6.97;;;38.00;43.90;;;38.89;31.83;95223.84;5061490;28;20200;-55
2022/07/02 09:51:51;;;;;;;10.13;6.97;;;38.00;44.30;;;38.93;31.83;95219.31;5060752;28;20235;-55
2022/07/02 09:54:21;;;;;;;9.23;7.07;;;38.00;44.40;;;38.84;31.57;95222.03;5061519;28;20212;-55
2022/07/02 09:56:54;;;;;;;18.45;8.32;;;38.00;44.40;;;38.57;31.23;95222.91;5058441;28;20760;-53
2022/07/02 09:59:22;;;;;;;7.68;7.18;;;37.80;43.50;;;38.32;32.30;95222.34;5061388;28;20211;-55
2022/07/02 10:01:49;;;;;;;9.48;8.40;;;37.60;44.10;;;38.20;32.45;95222.88;5058279;28;20720;-55
2022/07/02 10:04:16;;;;;;;8.85;6.80;;;37.40;45.00;;;38.16;33.01;95216.38;5061773;28;20645;-55
2022/07/02 10:06:44;;;;;;;14.80;8.25;;;37.40;45.40;;;38.25;33.05;95215.66;5058805;28;20688;-55
2022/07/02 10:09:12;;;;;;;7.55;6.72;;;37.30;45.50;;;38.24;32.46;95206.59;5062000;28;20536;-57
2022/07/02 10:11:41;;;;;;;14.50;6.57;;;37.40;45.00;;;38.16;32.32;95210.06;5058944;28;20221;-52
2022/07/02 10:14:08;;;;;;;7.15;6.43;;;37.40;44.70;;;38.15;30.92;95208.41;5062261;28;20234;-57
2022/07/02 10:16:36;;;;;;;6.68;6.07;;;37.30;42.80;;;38.19;31.57;95198.47;5059744;28;20236;-55
2022/07/02 10:19:04;;;;;;;6.63;6.00;;;37.30;43.60;;;38.25;31.41;95197.22;5057730;28;20200;-58
2022/07/02 10:21:31;;;;;;;8.25;6.30;;;37.40;43.40;;;38.34;30.48;95198.13;5058228;28;20228;-54
2022/07/02 10:23:59;;;;;;;12.63;6.55;;;37.40;42.30;;;38.40;30.94;95195.28;5061664;28;20211;-57